« Back
NWS Peachtree City, Ga » Text Product » AHN Terminal Aerodrome Forecast

Printer-friendly Version
Current Version              Previous Versions:   1  2  3  4  5  6  7  8  9  

Terminal Aerodrome Forecast

FTUS42 KFFC 020203 AAA
KAHN 020203Z 0202/0224 10004KT 1SM BR OVC003
     FM020400 13004KT 3SM -SHRA BR OVC003
     FM020800 17004KT 3SM -SHRA BR OVC003
     FM021200 21005KT 3SM -SHRA BR OVC003
     FM021600 24007KT 3SM -SHRA OVC009
     FM021800 27008G13KT P6SM SCT009 OVC020
     FM022000 27007KT P6SM OVC040=

USA.gov is the U.S. government's official web portal to all federal, state and local government web resources and services.